createdAt,value
2022-08-20T00:02:13.339Z,5.30
2022-08-20T00:04:42.039Z,9.20
2022-08-20T00:07:11.662Z,11.33
2022-08-20T00:09:41.485Z,13.60
2022-08-20T00:12:09.885Z,8.20
2022-08-20T00:14:39.152Z,11.67
2022-08-20T00:17:07.480Z,11.60
2022-08-20T00:19:35.755Z,7.17
2022-08-20T00:22:04.031Z,11.40
2022-08-20T00:24:34.837Z,13.10
2022-08-20T00:27:03.315Z,12.57
2022-08-20T00:29:31.594Z,12.53
2022-08-20T00:32:00.002Z,11.40
2022-08-20T00:34:28.358Z,13.80
2022-08-20T00:36:56.630Z,12.90
2022-08-20T00:39:24.863Z,14.33
2022-08-20T00:41:54.537Z,12.63
2022-08-20T00:44:23.976Z,13.57
2022-08-20T00:46:53.227Z,14.73
2022-08-20T00:49:24.961Z,15.03
2022-08-20T00:51:57.713Z,13.77
2022-08-20T00:54:28.225Z,11.97
2022-08-20T00:56:59.332Z,17.10
2022-08-20T00:59:29.955Z,14.27
2022-08-20T01:01:58.626Z,19.90
2022-08-20T01:04:27.762Z,17.87
2022-08-20T01:06:56.470Z,16.47
2022-08-20T01:09:49.533Z,17.50
2022-08-20T01:12:14.785Z,16.90
2022-08-20T01:14:45.888Z,19.00
2022-08-20T01:17:17.787Z,16.10
2022-08-20T01:19:48.946Z,15.50
2022-08-20T01:22:39.309Z,12.87
2022-08-20T01:25:10.898Z,15.67
2022-08-20T01:27:42.730Z,13.13
2022-08-20T01:30:12.114Z,12.97
2022-08-20T01:32:40.365Z,12.80
2022-08-20T01:35:08.978Z,11.47
2022-08-20T01:37:37.222Z,12.77
2022-08-20T01:40:06.640Z,12.07
2022-08-20T01:42:53.995Z,10.57
2022-08-20T01:45:31.006Z,11.83
2022-08-20T01:47:59.672Z,9.50
2022-08-20T01:50:30.526Z,10.40
2022-08-20T01:53:00.847Z,10.50
2022-08-20T01:55:29.190Z,13.50
2022-08-20T01:57:58.029Z,13.63
2022-08-20T02:00:26.444Z,15.80
2022-08-20T02:02:56.071Z,15.50
2022-08-20T02:05:24.377Z,13.40
2022-08-20T02:07:58.737Z,12.73
2022-08-20T02:10:26.995Z,14.90
2022-08-20T02:12:59.753Z,13.10
2022-08-20T02:15:34.681Z,14.17
2022-08-20T02:18:08.801Z,14.40
2022-08-20T02:20:37.418Z,16.63
2022-08-20T02:23:05.911Z,12.80
2022-08-20T02:25:35.874Z,15.73
2022-08-20T02:28:06.161Z,11.63
2022-08-20T02:30:35.698Z,14.27
2022-08-20T02:33:05.403Z,12.10
2022-08-20T02:35:35.347Z,11.10
2022-08-20T02:38:03.812Z,17.37
2022-08-20T02:40:32.655Z,11.50
2022-08-20T02:43:01.577Z,16.37
2022-08-20T02:45:30.360Z,11.73
2022-08-20T02:47:59.298Z,10.43
2022-08-20T02:50:28.283Z,23.73
2022-08-20T02:52:57.977Z,14.80
2022-08-20T02:55:27.523Z,14.07
2022-08-20T02:57:58.636Z,17.97
2022-08-20T03:00:27.824Z,15.40
2022-08-20T03:02:56.431Z,14.63
2022-08-20T03:05:24.724Z,14.93
2022-08-20T03:07:56.383Z,18.17
2022-08-20T03:10:27.883Z,16.07
2022-08-20T03:12:56.246Z,16.00
2022-08-20T03:15:24.520Z,18.27
2022-08-20T03:17:52.853Z,10.80
2022-08-20T03:20:22.441Z,15.20
2022-08-20T03:22:52.312Z,16.97
2022-08-20T03:25:20.603Z,16.27
2022-08-20T03:27:53.964Z,17.03
2022-08-20T03:30:23.675Z,17.03
2022-08-20T03:32:52.189Z,18.40
2022-08-20T03:35:21.266Z,17.60
2022-08-20T03:37:50.154Z,13.67
2022-08-20T03:40:20.265Z,16.50
2022-08-20T03:42:49.891Z,12.90
2022-08-20T03:45:20.607Z,13.10
2022-08-20T03:47:49.595Z,18.77
2022-08-20T03:50:23.248Z,17.03
2022-08-20T03:52:52.012Z,22.57
2022-08-20T03:55:20.381Z,15.10
2022-08-20T03:57:50.967Z,17.00
2022-08-20T04:00:28.679Z,14.40
2022-08-20T04:02:57.409Z,11.13
2022-08-20T04:05:25.855Z,18.57
2022-08-20T04:08:00.060Z,11.30
2022-08-20T04:10:31.778Z,16.00
2022-08-20T04:13:01.613Z,13.90
2022-08-20T04:15:31.412Z,12.10
2022-08-20T04:17:59.828Z,15.40
2022-08-20T04:20:28.700Z,12.70
2022-08-20T04:22:59.070Z,14.53
2022-08-20T04:25:29.692Z,12.63
2022-08-20T04:27:58.711Z,16.53
2022-08-20T04:30:29.175Z,10.30
2022-08-20T04:32:58.825Z,17.40
2022-08-20T04:35:27.460Z,18.17
2022-08-20T04:38:06.510Z,12.57
2022-08-20T04:40:53.235Z,15.17
2022-08-20T04:43:23.069Z,18.10
2022-08-20T04:45:52.951Z,17.13
2022-08-20T04:48:23.064Z,6.83
2022-08-20T04:50:52.491Z,14.33
2022-08-20T04:53:25.771Z,16.53
2022-08-20T04:55:54.863Z,17.70
2022-08-20T04:58:24.582Z,12.87
2022-08-20T05:00:55.443Z,17.03
2022-08-20T05:03:24.064Z,18.00
2022-08-20T05:05:53.854Z,16.63
2022-08-20T05:08:24.230Z,14.20
2022-08-20T05:10:54.116Z,20.90
2022-08-20T05:13:34.938Z,22.50
2022-08-20T05:16:05.192Z,17.10
2022-08-20T05:18:35.096Z,23.73
2022-08-20T05:21:05.762Z,21.30
2022-08-20T05:23:34.597Z,19.10
2022-08-20T05:26:05.409Z,20.00
2022-08-20T05:28:36.898Z,24.10
2022-08-20T05:31:22.430Z,22.70
2022-08-20T05:33:59.254Z,23.40
2022-08-20T05:36:27.510Z,17.20
2022-08-20T05:38:55.740Z,16.57
2022-08-20T05:41:27.558Z,20.53
2022-08-20T05:43:57.781Z,16.93
2022-08-20T05:46:27.397Z,22.30
2022-08-20T05:48:55.708Z,22.33
2022-08-20T05:51:27.884Z,18.47
2022-08-20T05:53:58.307Z,19.43
2022-08-20T05:56:31.073Z,16.27
2022-08-20T05:59:01.148Z,14.87
2022-08-20T06:01:30.943Z,12.83
2022-08-20T06:04:17.018Z,20.53
2022-08-20T06:06:47.045Z,16.57
2022-08-20T06:09:16.430Z,14.60
2022-08-20T06:11:59.156Z,19.73
2022-08-20T06:14:27.766Z,26.13
2022-08-20T06:16:59.145Z,18.00
2022-08-20T06:19:32.393Z,16.70
2022-08-20T06:22:00.969Z,20.93
2022-08-20T06:24:29.373Z,17.60
2022-08-20T06:26:58.625Z,21.60
2022-08-20T06:29:26.859Z,20.30
2022-08-20T06:31:55.173Z,18.83
2022-08-20T06:34:28.194Z,19.20
2022-08-20T06:36:57.066Z,19.20
2022-08-20T06:39:25.897Z,19.73
2022-08-20T06:41:56.201Z,22.97
2022-08-20T06:44:24.917Z,24.07
2022-08-20T06:46:53.614Z,19.23
2022-08-20T06:49:21.963Z,28.30
2022-08-20T06:51:51.995Z,19.37
2022-08-20T06:54:20.467Z,18.10
2022-08-20T06:56:56.965Z,18.70
2022-08-20T06:59:27.152Z,19.00
2022-08-20T07:01:56.425Z,21.73
2022-08-20T07:04:25.767Z,18.97
2022-08-20T07:06:57.455Z,19.10
2022-08-20T07:09:26.232Z,19.67
2022-08-20T07:11:54.517Z,20.60
2022-08-20T07:14:22.965Z,20.07
2022-08-20T07:16:51.283Z,17.77
2022-08-20T07:19:19.677Z,20.30
2022-08-20T07:21:50.150Z,22.80
2022-08-20T07:24:19.992Z,18.73
2022-08-20T07:26:49.321Z,19.47
2022-08-20T07:29:17.573Z,19.30
2022-08-20T07:32:07.774Z,18.13
2022-08-20T07:34:38.006Z,20.47
2022-08-20T07:37:11.951Z,23.67
2022-08-20T07:39:41.596Z,19.23
2022-08-20T07:42:13.034Z,15.80
2022-08-20T07:44:41.272Z,15.83
2022-08-20T07:47:09.540Z,16.07
2022-08-20T07:49:39.351Z,14.73
2022-08-20T07:52:07.843Z,15.67
2022-08-20T07:54:38.038Z,16.53
2022-08-20T07:57:08.308Z,17.17
2022-08-20T07:59:38.756Z,14.97
2022-08-20T08:02:07.536Z,12.23
2022-08-20T08:04:37.114Z,16.53
2022-08-20T08:07:05.664Z,18.87
2022-08-20T08:09:34.370Z,11.80
2022-08-20T08:12:02.863Z,17.27
2022-08-20T08:14:33.833Z,14.17
2022-08-20T08:17:04.658Z,20.07
2022-08-20T08:19:37.788Z,19.33
2022-08-20T08:22:07.926Z,23.53
2022-08-20T08:24:36.164Z,17.10
2022-08-20T08:27:04.640Z,19.70
2022-08-20T08:29:35.937Z,16.73
2022-08-20T08:32:04.777Z,14.63
2022-08-20T08:34:33.574Z,16.10
2022-08-20T08:37:03.432Z,17.27
2022-08-20T08:39:35.058Z,17.27
2022-08-20T08:42:05.126Z,16.37
2022-08-20T08:44:36.535Z,13.20
2022-08-20T08:47:18.123Z,14.70
2022-08-20T08:49:47.219Z,16.10
2022-08-20T08:52:19.706Z,14.17
2022-08-20T08:54:49.214Z,18.57
2022-08-20T08:57:17.830Z,15.67
2022-08-20T09:00:03.378Z,13.90
2022-08-20T09:02:34.199Z,14.67
2022-08-20T09:05:03.889Z,15.17
2022-08-20T09:07:34.894Z,19.03
2022-08-20T09:10:03.501Z,20.43
2022-08-20T09:12:33.208Z,16.30
2022-08-20T09:15:02.754Z,20.07
2022-08-20T09:17:31.017Z,14.60
2022-08-20T09:19:59.261Z,19.80
2022-08-20T09:22:27.491Z,17.63
2022-08-20T09:24:56.265Z,12.83
2022-08-20T09:27:24.520Z,18.07
2022-08-20T09:29:53.456Z,10.50
2022-08-20T09:32:25.165Z,18.00
2022-08-20T09:34:56.782Z,16.57
2022-08-20T09:37:25.489Z,15.70
2022-08-20T09:39:53.845Z,20.13
2022-08-20T09:42:24.120Z,16.33
2022-08-20T09:44:52.696Z,16.53
2022-08-20T09:47:21.066Z,16.23
2022-08-20T09:49:50.889Z,16.53
2022-08-20T09:52:21.815Z,19.67
2022-08-20T09:54:50.545Z,18.83
2022-08-20T09:57:19.619Z,14.40
2022-08-20T09:59:50.063Z,18.53
2022-08-20T10:02:18.320Z,19.53
2022-08-20T10:04:46.625Z,17.90
2022-08-20T10:07:17.673Z,11.80
2022-08-20T10:09:46.087Z,18.80
2022-08-20T10:12:14.296Z,22.30
2022-08-20T10:14:42.567Z,18.10
2022-08-20T10:17:10.882Z,18.77
2022-08-20T10:19:39.239Z,17.60
2022-08-20T10:22:07.619Z,13.10
2022-08-20T10:24:37.294Z,21.77
2022-08-20T10:27:05.685Z,17.73
2022-08-20T10:29:36.372Z,16.53
2022-08-20T10:32:12.329Z,15.07
2022-08-20T10:34:41.229Z,14.97
2022-08-20T10:37:09.943Z,9.93
2022-08-20T10:39:39.596Z,22.53
2022-08-20T10:42:08.037Z,15.10
2022-08-20T10:44:36.686Z,14.30
2022-08-20T10:47:15.339Z,17.13
2022-08-20T10:49:43.642Z,20.50
2022-08-20T10:52:12.378Z,16.47
2022-08-20T10:54:42.337Z,18.70
2022-08-20T10:57:11.414Z,14.20
2022-08-20T10:59:40.561Z,23.97
2022-08-20T11:02:09.332Z,14.87
2022-08-20T11:04:37.833Z,19.10
2022-08-20T11:07:13.135Z,24.43
2022-08-20T11:09:42.977Z,18.37
2022-08-20T11:12:11.217Z,24.43
2022-08-20T11:14:39.517Z,15.13
2022-08-20T11:17:08.254Z,15.20
2022-08-20T11:19:40.323Z,20.83
2022-08-20T11:22:08.758Z,18.67
2022-08-20T11:24:37.296Z,20.70
2022-08-20T11:27:07.951Z,22.07
2022-08-20T11:29:36.270Z,24.27
2022-08-20T11:32:04.778Z,27.50
2022-08-20T11:34:35.456Z,20.90
2022-08-20T11:37:03.712Z,11.40
2022-08-20T11:39:31.997Z,15.97
2022-08-20T11:42:01.741Z,13.20
2022-08-20T11:44:31.389Z,17.80
2022-08-20T11:47:03.416Z,16.97
2022-08-20T11:49:31.666Z,11.50
2022-08-20T11:51:59.897Z,18.33
2022-08-20T11:54:29.370Z,19.90
2022-08-20T11:56:57.965Z,14.00
2022-08-20T11:59:26.262Z,13.67
2022-08-20T12:02:03.294Z,12.70
2022-08-20T12:04:33.777Z,15.83
2022-08-20T12:07:10.058Z,12.83
2022-08-20T12:09:41.164Z,16.37
2022-08-20T12:12:20.468Z,20.77
2022-08-20T12:14:48.827Z,8.40
2022-08-20T12:17:21.328Z,8.37
2022-08-20T12:19:49.740Z,10.57
2022-08-20T12:22:24.465Z,16.63
2022-08-20T12:24:53.444Z,15.13
2022-08-20T12:27:23.331Z,15.37
2022-08-20T12:29:53.273Z,14.27
2022-08-20T12:32:23.627Z,15.63
2022-08-20T12:34:52.043Z,11.97
2022-08-20T12:37:22.272Z,9.20
2022-08-20T12:39:52.173Z,15.70
2022-08-20T12:42:21.438Z,12.80
2022-08-20T12:44:50.285Z,10.17
2022-08-20T12:47:19.923Z,11.87
2022-08-20T12:49:50.661Z,7.03
2022-08-20T12:52:20.322Z,12.80
2022-08-20T12:54:48.916Z,15.53
2022-08-20T12:57:17.453Z,10.40
2022-08-20T12:59:45.816Z,13.80
2022-08-20T13:02:17.521Z,11.53
2022-08-20T13:04:47.347Z,11.20
2022-08-20T13:07:17.169Z,8.10
2022-08-20T13:09:46.247Z,8.60
2022-08-20T13:12:15.244Z,12.13
2022-08-20T13:14:44.014Z,9.87
2022-08-20T13:17:12.436Z,9.40
2022-08-20T13:19:41.048Z,10.00
2022-08-20T13:22:09.279Z,10.10
2022-08-20T13:24:39.037Z,7.43
2022-08-20T13:27:08.334Z,9.73
2022-08-20T13:29:36.878Z,8.00
2022-08-20T13:32:05.400Z,9.57
2022-08-20T13:34:33.702Z,9.30
2022-08-20T13:37:01.954Z,5.97
2022-08-20T13:39:30.261Z,7.27
2022-08-20T13:41:59.852Z,6.10
2022-08-20T13:44:32.780Z,9.23
2022-08-20T13:47:01.843Z,10.00
2022-08-20T13:49:33.882Z,5.87
2022-08-20T13:52:02.369Z,8.00
2022-08-20T13:54:31.606Z,8.10
2022-08-20T13:57:07.317Z,13.53
2022-08-20T13:59:39.081Z,10.97
2022-08-20T14:02:07.679Z,12.53
2022-08-20T14:04:36.032Z,7.60
2022-08-20T14:07:10.701Z,7.53
2022-08-20T14:09:40.247Z,6.93
2022-08-20T14:12:10.631Z,10.00
2022-08-20T14:14:38.947Z,9.50
2022-08-20T14:17:15.139Z,14.40
2022-08-20T14:19:43.961Z,9.40
2022-08-20T14:22:12.589Z,10.53
2022-08-20T14:24:41.116Z,10.63
2022-08-20T14:27:11.129Z,7.77
2022-08-20T14:29:43.149Z,10.23
2022-08-20T14:32:11.740Z,6.53
2022-08-20T14:34:40.320Z,10.20
2022-08-20T14:37:12.892Z,6.97
2022-08-20T14:39:41.549Z,8.17
2022-08-20T14:42:11.272Z,5.40
2022-08-20T14:44:39.784Z,6.73
2022-08-20T14:47:11.986Z,9.30
2022-08-20T14:49:40.253Z,5.60
2022-08-20T14:52:08.630Z,6.10
2022-08-20T14:54:37.196Z,5.10
2022-08-20T14:57:05.828Z,5.57
2022-08-20T14:59:43.112Z,4.10
2022-08-20T15:02:12.512Z,5.87
2022-08-20T15:04:40.967Z,5.80
2022-08-20T15:07:15.829Z,6.70
2022-08-20T15:09:44.637Z,10.30
2022-08-20T15:12:12.947Z,9.90
2022-08-20T15:14:42.547Z,8.57
2022-08-20T15:17:11.804Z,6.50
2022-08-20T15:19:40.241Z,6.03
2022-08-20T15:22:08.489Z,8.67
2022-08-20T15:24:36.756Z,4.50
2022-08-20T15:27:12.566Z,8.93
2022-08-20T15:29:40.828Z,6.47
2022-08-20T15:32:10.517Z,9.80
2022-08-20T15:34:39.330Z,11.63
2022-08-20T15:37:08.884Z,11.50
2022-08-20T15:39:37.158Z,8.20
2022-08-20T15:42:06.447Z,7.97
2022-08-20T15:44:34.949Z,6.97
2022-08-20T15:47:15.073Z,13.37
2022-08-20T15:49:43.513Z,6.60
2022-08-20T15:52:11.998Z,4.60
2022-08-20T15:54:40.826Z,13.53
2022-08-20T15:57:11.677Z,6.23
2022-08-20T15:59:53.102Z,7.73
2022-08-20T16:02:29.820Z,6.33
2022-08-20T16:05:03.833Z,13.27
2022-08-20T16:07:35.830Z,7.40
2022-08-20T16:10:09.405Z,4.37
2022-08-20T16:12:40.872Z,3.80
2022-08-20T16:15:11.140Z,4.03
2022-08-20T16:17:42.644Z,11.23
2022-08-20T16:20:13.444Z,8.57
2022-08-20T16:22:44.040Z,6.90
2022-08-20T16:25:13.349Z,11.17
2022-08-20T16:27:47.360Z,6.30
2022-08-20T16:30:21.930Z,8.93
2022-08-20T16:32:56.221Z,7.73
2022-08-20T16:35:29.830Z,9.70
2022-08-20T16:38:01.386Z,6.00
2022-08-20T16:40:31.093Z,4.23
2022-08-20T16:43:00.207Z,13.00
2022-08-20T16:45:29.445Z,9.07
2022-08-20T16:48:01.089Z,6.30
2022-08-20T16:50:31.256Z,7.93
2022-08-20T16:52:59.494Z,10.33
2022-08-20T16:55:28.227Z,6.60
2022-08-20T16:57:56.579Z,5.70
2022-08-20T17:00:26.350Z,7.60
2022-08-20T17:02:56.447Z,10.63
2022-08-20T17:05:29.323Z,5.50
2022-08-20T17:08:01.639Z,7.20
2022-08-20T17:10:31.053Z,8.87
2022-08-20T17:13:01.043Z,6.53
2022-08-20T17:15:30.257Z,8.67
2022-08-20T17:17:58.614Z,7.20
2022-08-20T17:20:29.257Z,4.67
2022-08-20T17:23:10.332Z,5.00
2022-08-20T17:25:38.818Z,5.80
2022-08-20T17:28:14.578Z,8.73
2022-08-20T17:30:43.212Z,7.37
2022-08-20T17:33:24.277Z,6.20
2022-08-20T17:35:55.496Z,5.30
2022-08-20T17:38:29.319Z,4.27
2022-08-20T17:41:00.372Z,6.00
2022-08-20T17:43:30.650Z,4.83
2022-08-20T17:45:59.810Z,6.20
2022-08-20T17:48:30.873Z,10.07
2022-08-20T17:51:01.579Z,4.50
2022-08-20T17:53:31.357Z,8.47
2022-08-20T17:56:02.912Z,6.90
2022-08-20T17:58:35.136Z,5.73
2022-08-20T18:01:03.437Z,6.57
2022-08-20T18:03:31.716Z,8.53
2022-08-20T18:06:06.896Z,8.37
2022-08-20T18:08:38.553Z,4.77
2022-08-20T18:11:11.559Z,9.90
2022-08-20T18:13:48.058Z,7.97
2022-08-20T18:16:20.136Z,4.10
2022-08-20T18:18:57.139Z,5.30
2022-08-20T18:21:40.514Z,12.57
2022-08-20T18:24:12.435Z,9.27
2022-08-20T18:26:43.781Z,8.53
2022-08-20T18:29:18.512Z,10.53
2022-08-20T18:31:48.694Z,6.37
2022-08-20T18:34:18.895Z,6.93
2022-08-20T18:36:55.993Z,10.77
2022-08-20T18:39:27.855Z,3.50
2022-08-20T18:41:58.440Z,5.80
2022-08-20T18:44:29.431Z,5.10
2022-08-20T18:46:59.205Z,12.10
2022-08-20T18:49:29.155Z,6.83
2022-08-20T18:52:09.557Z,16.20
2022-08-20T18:54:40.017Z,12.10
2022-08-20T18:57:09.649Z,9.13
2022-08-20T18:59:42.109Z,6.87
2022-08-20T19:02:22.104Z,6.73
2022-08-20T19:04:59.798Z,7.93
2022-08-20T19:07:47.921Z,11.50
2022-08-20T19:10:44.262Z,7.30
2022-08-20T19:13:34.630Z,8.13
2022-08-20T19:16:06.200Z,7.10
2022-08-20T19:18:38.372Z,9.50
2022-08-20T19:21:15.446Z,8.20
2022-08-20T19:23:48.593Z,10.80
2022-08-20T19:26:25.257Z,13.83
2022-08-20T19:28:57.161Z,7.03
2022-08-20T19:31:27.085Z,7.80
2022-08-20T19:34:04.070Z,8.00
2022-08-20T19:36:54.397Z,8.37
2022-08-20T19:39:25.679Z,9.87
2022-08-20T19:41:57.281Z,7.83
2022-08-20T19:44:28.149Z,12.93
2022-08-20T19:46:56.529Z,7.57
2022-08-20T19:49:27.712Z,5.67
2022-08-20T19:52:01.077Z,16.00
2022-08-20T19:54:29.952Z,15.90
2022-08-20T19:56:59.043Z,13.90
2022-08-20T19:59:30.184Z,7.17
2022-08-20T20:02:00.377Z,6.13
2022-08-20T20:04:30.004Z,4.50
2022-08-20T20:06:59.395Z,6.67
2022-08-20T20:09:28.597Z,8.30
2022-08-20T20:11:58.474Z,8.37
2022-08-20T20:14:28.759Z,13.33
2022-08-20T20:16:59.008Z,5.03
2022-08-20T20:19:28.484Z,8.97
2022-08-20T20:22:16.090Z,7.30
2022-08-20T20:24:50.685Z,5.77
2022-08-20T20:27:22.016Z,6.57
2022-08-20T20:29:51.729Z,5.47
2022-08-20T20:32:23.343Z,5.43
2022-08-20T20:34:55.456Z,5.03
2022-08-20T20:37:49.115Z,6.23
2022-08-20T20:40:23.233Z,5.10
2022-08-20T20:42:58.710Z,8.03
2022-08-20T20:45:30.786Z,8.07
2022-08-20T20:48:00.503Z,8.93
2022-08-20T20:50:30.334Z,4.57
2022-08-20T20:52:59.778Z,8.13
2022-08-20T20:55:29.180Z,5.97
2022-08-20T20:57:58.559Z,5.87
2022-08-20T21:00:29.674Z,5.13
2022-08-20T21:02:58.222Z,6.23
2022-08-20T21:05:32.173Z,5.83
2022-08-20T21:08:01.736Z,9.93
2022-08-20T21:10:32.780Z,7.00
2022-08-20T21:13:03.838Z,8.30
2022-08-20T21:15:32.720Z,9.90
2022-08-20T21:18:02.013Z,9.33
2022-08-20T21:20:31.924Z,7.20
2022-08-20T21:23:00.215Z,5.83
2022-08-20T21:25:28.812Z,9.77
2022-08-20T21:27:57.361Z,5.10
2022-08-20T21:30:26.300Z,8.67
2022-08-20T21:32:54.949Z,7.13
2022-08-20T21:35:23.397Z,7.47
2022-08-20T21:37:53.306Z,8.30
2022-08-20T21:40:22.117Z,6.20
2022-08-20T21:42:51.355Z,9.60
2022-08-20T21:45:20.192Z,7.83
2022-08-20T21:47:48.945Z,7.57
2022-08-20T21:50:18.819Z,8.57
2022-08-20T21:52:58.041Z,7.40
2022-08-20T21:55:29.348Z,7.97
2022-08-20T21:57:57.658Z,12.47
2022-08-20T22:00:40.750Z,9.47
2022-08-20T22:03:09.047Z,10.13
2022-08-20T22:05:42.621Z,9.70
2022-08-20T22:08:11.646Z,9.53
2022-08-20T22:10:41.328Z,9.83
2022-08-20T22:13:09.651Z,11.47
2022-08-20T22:15:39.794Z,7.57
2022-08-20T22:18:08.605Z,8.57
2022-08-20T22:20:36.962Z,13.40
2022-08-20T22:23:05.881Z,7.17
2022-08-20T22:25:34.427Z,8.90
2022-08-20T22:28:04.074Z,10.10
2022-08-20T22:30:32.622Z,10.40
2022-08-20T22:33:02.679Z,8.33
2022-08-20T22:35:31.321Z,7.37
2022-08-20T22:37:59.635Z,7.53
2022-08-20T22:40:27.914Z,11.77
2022-08-20T22:42:56.322Z,6.50
2022-08-20T22:45:26.251Z,7.23
2022-08-20T22:47:54.554Z,8.63
2022-08-20T22:50:24.203Z,7.57
2022-08-20T22:52:52.751Z,12.17
2022-08-20T22:55:21.353Z,7.70
2022-08-20T22:57:49.696Z,8.03
2022-08-20T23:00:20.210Z,8.13
2022-08-20T23:02:51.709Z,7.60
2022-08-20T23:05:21.906Z,5.60
2022-08-20T23:07:53.925Z,8.80
2022-08-20T23:10:22.798Z,6.93
2022-08-20T23:12:51.357Z,4.63
2022-08-20T23:15:19.784Z,8.90
2022-08-20T23:17:48.293Z,6.03
2022-08-20T23:20:18.741Z,5.60
2022-08-20T23:22:46.985Z,10.57
2022-08-20T23:25:15.273Z,6.50
2022-08-20T23:27:45.122Z,13.20
2022-08-20T23:30:13.810Z,8.13
2022-08-20T23:32:42.090Z,7.63
2022-08-20T23:35:10.758Z,5.50
2022-08-20T23:37:42.510Z,7.07
2022-08-20T23:40:11.628Z,10.43
2022-08-20T23:42:40.062Z,12.30
2022-08-20T23:45:08.923Z,10.47
2022-08-20T23:47:37.506Z,5.80
2022-08-20T23:50:05.922Z,5.70
2022-08-20T23:52:34.470Z,4.57
2022-08-20T23:55:04.164Z,9.33
2022-08-20T23:57:32.420Z,5.83
